Time;durP1;ratioP1;P1;durP2;ratioP2;P2;SDS_P1;SDS_P2;PMS_P1;PMS_P2;Temp;Humidity;BMP_temperature;BMP_pressure;BME280_temperature;BME280_humidity;BME280_pressure;Samples;Min_cycle;Max_cycle;Signal;HPM_P1;HPM_P2
2022/09/16 00:01:17;;;;;;;8.38;5.80;;;13.90;99.90;;;;;;5074272;28;20090;-51
2022/09/16 00:03:43;;;;;;;15.85;6.13;;;13.90;99.90;;;;;;5074150;28;20029;-51
2022/09/16 00:06:20;;;;;;;11.82;6.53;;;13.90;99.90;;;;;;5074255;28;20048;-53
2022/09/16 00:08:46;;;;;;;8.93;6.00;;;13.90;99.90;;;;;;5073995;28;20094;-51
2022/09/16 00:11:12;;;;;;;11.35;6.07;;;13.90;99.90;;;;;;5074004;28;20446;-51
2022/09/16 00:13:38;;;;;;;6.97;5.70;;;13.90;99.90;;;;;;5073871;28;20111;-51
2022/09/16 00:16:07;;;;;;;14.32;6.70;;;13.90;99.90;;;;;;5072771;28;20060;-52
2022/09/16 00:18:33;;;;;;;7.03;6.32;;;13.90;99.90;;;;;;5073898;28;20020;-52
2022/09/16 00:20:59;;;;;;;7.78;6.10;;;13.90;99.90;;;;;;5074020;28;20070;-50
2022/09/16 00:23:24;;;;;;;9.52;5.70;;;13.90;99.90;;;;;;5072695;28;20024;-50
2022/09/16 00:25:52;;;;;;;12.43;6.68;;;13.80;99.90;;;;;;5073795;28;20444;-51
2022/09/16 00:28:20;;;;;;;12.43;5.88;;;13.80;99.90;;;;;;5073782;28;20571;-51
2022/09/16 00:30:46;;;;;;;12.65;6.47;;;13.80;99.90;;;;;;5072238;28;20486;-52
2022/09/16 00:33:12;;;;;;;13.02;5.95;;;13.80;99.90;;;;;;5072294;28;20507;-53
2022/09/16 00:35:38;;;;;;;18.60;7.03;;;13.70;99.90;;;;;;5073594;28;20033;-53
2022/09/16 00:38:03;;;;;;;6.82;6.13;;;13.70;99.90;;;;;;5073707;28;20052;-52
2022/09/16 00:40:29;;;;;;;7.45;6.75;;;13.60;99.90;;;;;;5073559;28;20531;-52
2022/09/16 00:42:54;;;;;;;13.13;6.63;;;13.60;99.90;;;;;;5073471;28;20110;-52
2022/09/16 00:45:23;;;;;;;28.20;7.75;;;13.60;99.90;;;;;;5073494;28;20035;-54
2022/09/16 00:48:01;;;;;;;12.05;6.68;;;13.50;99.90;;;;;;5072624;28;20525;-52
2022/09/16 00:50:48;;;;;;;8.23;6.85;;;13.50;99.90;;;;;;5073150;28;20025;-52
2022/09/16 00:53:19;;;;;;;7.88;6.18;;;13.50;99.90;;;;;;5073499;28;20032;-51
2022/09/16 00:55:45;;;;;;;10.77;7.32;;;13.40;99.90;;;;;;5073320;28;20113;-51
2022/09/16 00:58:24;;;;;;;10.10;6.13;;;13.40;99.90;;;;;;5073427;28;20121;-52
2022/09/16 01:00:50;;;;;;;8.55;6.43;;;13.40;99.90;;;;;;5073117;28;20024;-50
2022/09/16 01:03:16;;;;;;;9.40;6.43;;;13.40;99.90;;;;;;5073161;28;20463;-54
2022/09/16 01:05:43;;;;;;;12.85;6.80;;;13.30;99.90;;;;;;5072982;28;20407;-51
2022/09/16 01:08:09;;;;;;;9.98;7.07;;;13.30;99.90;;;;;;5072982;28;20048;-52
2022/09/16 01:10:35;;;;;;;8.20;6.65;;;13.30;99.90;;;;;;5072924;28;20029;-51
2022/09/16 01:13:07;;;;;;;9.85;8.75;;;13.30;99.90;;;;;;5073034;28;20021;-51
2022/09/16 01:15:58;;;;;;;13.88;6.75;;;13.30;99.90;;;;;;5072879;28;20420;-52
2022/09/16 01:18:32;;;;;;;10.30;6.80;;;13.40;99.90;;;;;;5072888;28;20074;-52
2022/09/16 01:21:19;;;;;;;11.30;6.70;;;13.40;99.90;;;;;;5072735;28;20070;-51
2022/09/16 01:24:06;;;;;;;8.07;7.25;;;13.30;99.90;;;;;;5072673;28;20423;-50
2022/09/16 01:26:37;;;;;;;14.32;8.27;;;13.30;99.90;;;;;;5071301;28;20460;-51
2022/09/16 01:29:06;;;;;;;12.30;6.97;;;13.20;99.90;;;;;;5072678;28;20031;-51
2022/09/16 01:31:52;;;;;;;8.43;6.53;;;13.20;99.90;;;;;;5071085;28;20036;-51
2022/09/16 01:34:23;;;;;;;13.77;6.50;;;13.10;99.90;;;;;;5072559;28;20028;-53
2022/09/16 01:36:56;;;;;;;15.55;8.38;;;13.10;99.90;;;;;;5072345;28;20028;-50
2022/09/16 01:39:22;;;;;;;11.55;7.05;;;13.00;99.90;;;;;;5072287;28;20016;-50
2022/09/16 01:42:14;;;;;;;8.88;6.47;;;13.00;99.90;;;;;;5072094;28;20032;-50
2022/09/16 01:45:10;;;;;;;9.65;7.00;;;12.90;99.90;;;;;;5071903;28;20015;-50
2022/09/16 01:47:39;;;;;;;11.57;7.45;;;12.90;99.90;;;;;;5071884;28;20028;-52
2022/09/16 01:50:08;;;;;;;9.80;6.18;;;12.90;99.90;;;;;;5072222;28;20625;-51
2022/09/16 01:52:52;;;;;;;9.23;7.32;;;13.00;99.90;;;;;;5072045;28;20028;-52
2022/09/16 01:55:25;;;;;;;7.18;5.88;;;13.00;99.90;;;;;;5072148;28;20021;-53
2022/09/16 01:58:08;;;;;;;12.93;7.93;;;12.90;99.90;;;;;;5072025;28;20439;-51
2022/09/16 02:00:35;;;;;;;16.48;8.70;;;12.80;99.90;;;;;;5071453;28;20021;-50
2022/09/16 02:03:06;;;;;;;11.18;7.80;;;12.80;99.90;;;;;;5071864;28;20056;-51
2022/09/16 02:05:44;;;;;;;9.90;7.25;;;12.80;99.90;;;;;;5071420;28;20090;-52
2022/09/16 02:08:18;;;;;;;8.73;6.30;;;12.70;99.90;;;;;;5071470;28;20098;-52
2022/09/16 02:10:49;;;;;;;9.63;6.03;;;12.70;99.90;;;;;;5071547;28;20052;-51
2022/09/16 02:13:56;;;;;;;10.77;7.22;;;12.60;99.90;;;;;;5071894;28;20066;-50
2022/09/16 02:16:29;;;;;;;10.90;7.70;;;12.50;99.90;;;;;;5009572;28;20030;-51
2022/09/16 02:19:04;;;;;;;9.05;7.00;;;12.60;99.90;;;;;;5061793;28;20061;-51
2022/09/16 02:21:33;;;;;;;18.98;7.45;;;12.50;99.90;;;;;;5071525;28;20047;-52
2022/09/16 02:24:01;;;;;;;14.48;8.77;;;12.50;99.90;;;;;;5071658;28;20021;-51
2022/09/16 02:26:33;;;;;;;9.68;8.18;;;12.50;99.90;;;;;;5071624;28;20036;-51
2022/09/16 02:29:01;;;;;;;12.02;8.88;;;12.50;99.90;;;;;;5071656;28;20031;-51
2022/09/16 02:31:34;;;;;;;10.13;8.55;;;12.50;99.90;;;;;;5071623;28;20048;-51
2022/09/16 02:34:06;;;;;;;;;;;12.50;99.90;;;;;;5072131;28;20016;-50
2022/09/16 02:36:34;;;;;;;13.57;8.80;;;12.60;99.90;;;;;;5071369;28;19927;-50
2022/09/16 02:39:08;;;;;;;11.43;8.50;;;12.60;99.90;;;;;;5071516;28;20140;-51
2022/09/16 02:41:34;;;;;;;;;;;12.60;99.90;;;;;;5071926;28;20035;-50
2022/09/16 02:44:01;;;;;;;15.52;10.43;;;12.60;99.90;;;;;;5071560;28;20279;-50
2022/09/16 02:46:35;;;;;;;9.82;8.23;;;12.60;99.90;;;;;;5071503;28;20033;-50
2022/09/16 02:49:25;;;;;;;9.18;8.30;;;12.80;99.90;;;;;;5071512;28;20024;-51
2022/09/16 02:52:12;;;;;;;12.13;8.23;;;12.90;99.90;;;;;;5071279;28;20767;-51
2022/09/16 02:55:13;;;;;;;14.57;9.55;;;12.90;99.90;;;;;;5071257;28;20027;-50
2022/09/16 02:57:38;;;;;;;13.68;9.40;;;12.80;99.90;;;;;;5047098;28;20467;-51
2022/09/16 03:00:05;;;;;;;15.80;10.07;;;12.80;99.90;;;;;;5071409;28;20024;-51
2022/09/16 03:02:34;;;;;;;16.25;9.13;;;12.80;99.90;;;;;;5071274;28;20432;-53
2022/09/16 03:05:00;;;;;;;12.13;10.05;;;12.80;99.90;;;;;;5071353;28;20032;-50
2022/09/16 03:07:26;;;;;;;10.93;8.75;;;12.80;99.90;;;;;;5071352;28;20399;-54
2022/09/16 03:09:52;;;;;;;18.05;9.68;;;12.80;99.90;;;;;;5071073;28;20049;-52
2022/09/16 03:12:43;;;;;;;12.73;8.82;;;12.80;99.90;;;;;;5072836;28;20020;-51
2022/09/16 03:15:30;;;;;;;18.42;8.90;;;12.80;99.90;;;;;;5075367;28;20021;-51
2022/09/16 03:18:17;;;;;;;14.70;9.30;;;12.80;99.90;;;;;;5075307;28;20353;-50
2022/09/16 03:21:02;;;;;;;15.80;9.35;;;12.80;99.90;;;;;;5075013;28;20025;-52
2022/09/16 03:24:07;;;;;;;18.77;9.93;;;12.80;99.90;;;;;;5073767;28;20103;-54
2022/09/16 03:26:44;;;;;;;16.65;10.07;;;12.80;99.90;;;;;;5074920;28;20055;-52
2022/09/16 03:29:33;;;;;;;16.88;9.02;;;12.80;99.90;;;;;;5075189;28;20024;-50
2022/09/16 03:32:22;;;;;;;14.13;9.02;;;12.80;99.90;;;;;;5074882;28;20029;-51
2022/09/16 03:34:58;;;;;;;13.82;9.07;;;12.80;99.90;;;;;;5074626;28;20494;-50
2022/09/16 03:37:27;;;;;;;11.75;9.00;;;12.70;99.90;;;;;;5074693;28;20020;-52
2022/09/16 03:39:58;;;;;;;13.10;9.73;;;12.70;99.90;;;;;;5073173;28;20029;-51
2022/09/16 03:42:24;;;;;;;10.23;8.90;;;12.70;99.90;;;;;;5073342;28;20078;-51
2022/09/16 03:44:50;;;;;;;12.82;9.13;;;12.70;99.90;;;;;;5074539;28;20086;-51
2022/09/16 03:47:16;;;;;;;12.00;9.80;;;12.70;99.90;;;;;;5073370;28;20028;-51
2022/09/16 03:49:42;;;;;;;18.20;10.50;;;12.70;99.90;;;;;;5072964;28;20024;-51
2022/09/16 03:52:09;;;;;;;11.13;10.00;;;12.70;99.90;;;;;;5074585;28;20028;-50
2022/09/16 03:54:36;;;;;;;16.15;10.07;;;12.80;99.90;;;;;;5074543;28;20083;-51
2022/09/16 03:57:01;;;;;;;15.85;11.55;;;12.70;99.90;;;;;;5074534;28;20349;-50
2022/09/16 03:59:28;;;;;;;12.45;8.20;;;12.80;99.90;;;;;;5074410;28;20035;-54
2022/09/16 04:01:54;;;;;;;12.68;8.60;;;12.90;99.90;;;;;;5074434;28;20020;-51
2022/09/16 04:04:19;;;;;;;9.80;8.63;;;13.00;99.90;;;;;;5074135;28;20440;-52
2022/09/16 04:06:45;;;;;;;10.85;8.15;;;13.00;99.90;;;;;;5073988;28;20035;-52
2022/09/16 04:09:11;;;;;;;9.95;8.63;;;13.00;99.90;;;;;;5074077;28;20044;-51
2022/09/16 04:11:38;;;;;;;10.88;8.98;;;12.90;99.90;;;;;;5074016;28;20516;-53
2022/09/16 04:14:05;;;;;;;13.52;9.45;;;12.90;99.90;;;;;;5074273;28;20091;-52
2022/09/16 04:16:30;;;;;;;16.52;8.27;;;13.00;99.90;;;;;;5074000;28;20031;-50
2022/09/16 04:18:56;;;;;;;9.52;8.60;;;13.00;99.90;;;;;;5074005;28;20020;-53
2022/09/16 04:21:23;;;;;;;12.40;8.27;;;13.00;99.90;;;;;;5074096;28;20024;-50
2022/09/16 04:23:49;;;;;;;17.25;8.95;;;13.00;99.90;;;;;;5073498;28;20017;-52
2022/09/16 04:26:15;;;;;;;11.63;9.15;;;13.00;99.90;;;;;;5074071;28;20024;-53
2022/09/16 04:28:42;;;;;;;10.85;9.02;;;13.00;99.90;;;;;;5073773;28;20463;-51
2022/09/16 04:31:11;;;;;;;10.02;8.77;;;13.00;99.90;;;;;;5073815;28;20395;-51
2022/09/16 04:33:37;;;;;;;13.57;10.10;;;12.90;99.90;;;;;;5072105;28;20448;-51
2022/09/16 04:36:13;;;;;;;13.50;9.88;;;12.90;99.90;;;;;;5073906;28;20078;-52
2022/09/16 04:38:40;;;;;;;15.05;9.95;;;12.90;99.90;;;;;;5073678;28;20028;-52
2022/09/16 04:41:09;;;;;;;15.30;9.80;;;12.90;99.90;;;;;;5073769;28;20027;-53
2022/09/16 04:43:35;;;;;;;11.35;10.13;;;12.90;99.90;;;;;;5073611;28;20159;-51
2022/09/16 04:46:01;;;;;;;10.15;8.25;;;12.90;99.90;;;;;;5073616;28;20108;-51
2022/09/16 04:48:27;;;;;;;15.02;9.35;;;13.00;99.90;;;;;;5073653;28;20099;-53
2022/09/16 04:50:53;;;;;;;10.77;8.93;;;13.00;99.90;;;;;;5073283;28;20020;-52
2022/09/16 04:53:20;;;;;;;12.18;10.63;;;13.00;99.90;;;;;;5072995;28;20096;-51
2022/09/16 04:55:47;;;;;;;10.68;8.40;;;13.00;99.90;;;;;;5073131;28;20020;-50
2022/09/16 04:58:13;;;;;;;13.43;9.65;;;13.00;99.90;;;;;;5073255;28;20643;-50
2022/09/16 05:00:45;;;;;;;12.23;9.20;;;13.00;99.90;;;;;;5072961;28;20501;-51
2022/09/16 05:03:11;;;;;;;12.15;9.50;;;13.00;99.90;;;;;;5073201;28;20021;-52
2022/09/16 05:05:36;;;;;;;11.23;9.20;;;13.00;99.90;;;;;;5073091;28;20032;-50
2022/09/16 05:08:02;;;;;;;12.98;9.55;;;13.00;99.90;;;;;;5072647;28;20111;-51
2022/09/16 05:10:27;;;;;;;12.23;10.07;;;13.00;99.90;;;;;;5073044;28;20491;-53
2022/09/16 05:12:54;;;;;;;12.75;10.07;;;13.00;99.90;;;;;;5072786;28;20017;-50
2022/09/16 05:15:20;;;;;;;11.95;9.82;;;13.10;99.90;;;;;;5073026;28;20025;-50
2022/09/16 05:17:45;;;;;;;15.77;8.95;;;13.00;99.90;;;;;;5072710;28;20028;-53
2022/09/16 05:20:11;;;;;;;9.73;8.80;;;13.00;99.90;;;;;;5072598;28;20028;-50
2022/09/16 05:22:38;;;;;;;13.02;9.90;;;13.00;99.90;;;;;;5072543;28;20032;-51
2022/09/16 05:25:04;;;;;;;12.98;9.07;;;13.00;99.90;;;;;;5072836;28;20028;-51
2022/09/16 05:27:30;;;;;;;17.17;11.88;;;13.00;99.90;;;;;;5072713;28;20028;-50
2022/09/16 05:29:56;;;;;;;17.17;9.52;;;13.10;99.90;;;;;;5072674;28;20029;-52
2022/09/16 05:32:22;;;;;;;10.57;9.48;;;13.10;99.90;;;;;;5072540;28;20089;-53
2022/09/16 05:34:49;;;;;;;14.88;10.40;;;13.10;99.90;;;;;;5071552;28;20036;-52
2022/09/16 05:37:17;;;;;;;24.05;10.73;;;13.10;99.90;;;;;;5072120;28;20511;-53
2022/09/16 05:39:43;;;;;;;12.00;9.52;;;13.10;99.90;;;;;;5071999;28;20036;-51
2022/09/16 05:42:09;;;;;;;11.23;9.68;;;13.20;99.90;;;;;;5072396;28;20048;-54
2022/09/16 05:44:35;;;;;;;20.90;9.85;;;13.20;99.90;;;;;;5072109;28;20028;-51
2022/09/16 05:47:01;;;;;;;11.38;9.82;;;13.20;99.90;;;;;;5072244;28;20033;-53
2022/09/16 05:49:26;;;;;;;14.35;10.75;;;13.20;99.90;;;;;;5072220;28;20036;-51
2022/09/16 05:51:53;;;;;;;13.60;9.73;;;13.30;99.90;;;;;;5072110;28;20187;-55
2022/09/16 05:54:19;;;;;;;12.35;10.15;;;13.40;99.90;;;;;;5072145;28;20025;-50
2022/09/16 05:56:46;;;;;;;11.30;8.65;;;13.50;99.90;;;;;;5071748;28;20004;-51
2022/09/16 05:59:13;;;;;;;20.05;9.55;;;13.60;99.90;;;;;;5072016;28;20643;-50
2022/09/16 06:01:39;;;;;;;11.15;8.90;;;13.70;99.90;;;;;;5071857;28;20017;-54
2022/09/16 06:04:08;;;;;;;18.48;10.57;;;13.80;99.90;;;;;;5071980;28;20024;-52
2022/09/16 06:06:36;;;;;;;12.35;8.95;;;13.80;99.90;;;;;;5071789;28;20025;-53
2022/09/16 06:09:08;;;;;;;14.77;9.98;;;13.90;99.90;;;;;;5071627;28;20395;-53
2022/09/16 06:11:39;;;;;;;12.73;9.05;;;14.10;99.90;;;;;;5071323;28;20020;-54
2022/09/16 06:14:05;;;;;;;14.75;9.38;;;14.10;99.90;;;;;;5071852;28;20460;-53
2022/09/16 06:16:32;;;;;;;15.40;9.43;;;14.30;99.90;;;;;;5071669;28;20032;-56
2022/09/16 06:18:59;;;;;;;11.75;8.85;;;14.30;99.90;;;;;;5071787;28;20020;-52
2022/09/16 06:21:27;;;;;;;11.18;9.07;;;14.30;99.90;;;;;;5071468;28;20094;-54
2022/09/16 06:23:52;;;;;;;10.35;8.50;;;14.40;99.90;;;;;;5071525;28;20044;-51
2022/09/16 06:26:21;;;;;;;29.48;8.98;;;14.30;99.90;;;;;;5071655;28;20110;-53
2022/09/16 06:28:48;;;;;;;16.70;9.68;;;14.30;99.90;;;;;;5071333;28;20028;-53
2022/09/16 06:31:16;;;;;;;12.80;8.90;;;14.30;99.90;;;;;;5071633;28;20020;-52
2022/09/16 06:33:41;;;;;;;12.88;9.13;;;14.30;99.90;;;;;;5071112;28;20089;-50
2022/09/16 06:36:10;;;;;;;13.43;9.70;;;14.40;99.90;;;;;;5071180;28;20025;-53
2022/09/16 06:38:36;;;;;;;11.13;8.85;;;14.40;99.90;;;;;;5071232;28;20027;-53
2022/09/16 06:41:06;;;;;;;14.13;9.95;;;14.40;99.90;;;;;;5071586;28;20021;-51
2022/09/16 06:43:32;;;;;;;17.17;9.13;;;14.60;99.90;;;;;;5071272;28;20029;-54
2022/09/16 06:45:59;;;;;;;19.23;8.77;;;14.70;99.90;;;;;;5071353;28;20094;-52
2022/09/16 06:48:26;;;;;;;11.18;8.23;;;14.80;99.90;;;;;;5071359;28;20086;-51
2022/09/16 06:51:05;;;;;;;12.63;8.90;;;14.80;99.90;;;;;;5071318;28;20021;-53
2022/09/16 06:53:32;;;;;;;18.70;9.88;;;14.80;99.90;;;;;;5071048;28;20020;-54
2022/09/16 06:56:12;;;;;;;11.85;9.10;;;14.80;99.90;;;;;;5071207;28;20025;-52
2022/09/16 06:58:40;;;;;;;10.77;8.98;;;14.70;99.90;;;;;;5070991;28;20028;-53
2022/09/16 07:01:07;;;;;;;13.35;9.63;;;14.70;99.90;;;;;;5071032;28;20020;-55
2022/09/16 07:03:36;;;;;;;11.40;9.07;;;14.60;99.90;;;;;;5071151;28;20031;-52
2022/09/16 07:06:01;;;;;;;9.57;8.65;;;14.50;99.90;;;;;;5070029;28;20090;-51
2022/09/16 07:08:29;;;;;;;10.65;9.50;;;14.40;99.90;;;;;;5071084;28;20044;-54
2022/09/16 07:11:05;;;;;;;16.98;9.20;;;14.40;99.90;;;;;;5071130;28;20029;-51
2022/09/16 07:13:31;;;;;;;14.25;10.93;;;14.30;99.90;;;;;;5070830;28;20025;-52
2022/09/16 07:16:01;;;;;;;13.45;9.95;;;14.20;99.90;;;;;;5071196;28;20028;-55
2022/09/16 07:18:29;;;;;;;14.10;9.55;;;14.30;99.90;;;;;;5071184;28;20029;-51
2022/09/16 07:21:12;;;;;;;10.38;9.27;;;14.20;99.90;;;;;;5070894;28;20021;-52
2022/09/16 07:23:39;;;;;;;13.50;10.20;;;14.20;99.90;;;;;;5070877;28;20035;-54
2022/09/16 07:26:10;;;;;;;17.75;12.00;;;14.20;99.90;;;;;;5071116;28;20039;-54
2022/09/16 07:28:38;;;;;;;16.42;10.88;;;14.10;99.90;;;;;;5070923;28;20024;-52
2022/09/16 07:31:06;;;;;;;12.90;10.45;;;14.20;99.90;;;;;;5071120;28;20107;-52
2022/09/16 07:33:36;;;;;;;19.10;11.07;;;14.10;99.90;;;;;;5070661;28;20085;-51
2022/09/16 07:36:04;;;;;;;13.18;10.10;;;14.20;99.90;;;;;;5071047;28;20025;-51
2022/09/16 07:38:29;;;;;;;17.80;9.55;;;14.30;99.90;;;;;;5070798;28;20020;-53
2022/09/16 07:40:55;;;;;;;15.65;10.85;;;14.30;99.90;;;;;;5070928;28;20520;-52
2022/09/16 07:43:21;;;;;;;13.13;9.55;;;14.40;99.90;;;;;;5071122;28;20036;-52
2022/09/16 07:45:55;;;;;;;14.48;10.50;;;14.50;99.90;;;;;;5070773;28;20033;-53
2022/09/16 07:48:20;;;;;;;19.38;10.88;;;14.60;99.90;;;;;;5070953;28;20035;-51
2022/09/16 07:50:54;;;;;;;13.85;8.48;;;14.70;99.90;;;;;;5070708;28;20696;-52
2022/09/16 07:53:20;;;;;;;10.52;8.05;;;14.80;99.90;;;;;;5070787;28;20478;-52
2022/09/16 07:55:46;;;;;;;11.60;7.97;;;15.00;99.90;;;;;;5070660;28;20056;-55
2022/09/16 07:58:11;;;;;;;10.85;7.22;;;15.10;99.90;;;;;;5072420;28;20025;-54
2022/09/16 08:00:37;;;;;;;11.48;7.93;;;15.20;99.90;;;;;;5072996;28;20029;-53
2022/09/16 08:03:04;;;;;;;9.82;8.20;;;15.00;99.90;;;;;;5074292;28;20025;-50
2022/09/16 08:05:30;;;;;;;11.10;7.47;;;15.10;99.90;;;;;;5073902;28;20055;-51
2022/09/16 08:07:56;;;;;;;11.15;7.50;;;15.00;99.90;;;;;;5074075;28;20027;-51
2022/09/16 08:10:21;;;;;;;11.13;6.85;;;15.00;99.90;;;;;;5074091;28;20025;-50
2022/09/16 08:12:47;;;;;;;15.20;7.55;;;15.20;99.90;;;;;;5058942;28;20053;-52
2022/09/16 08:15:13;;;;;;;14.93;6.85;;;15.20;99.90;;;;;;5054038;28;20029;-52
2022/09/16 08:17:39;;;;;;;8.27;7.40;;;15.30;99.90;;;;;;5053962;28;20515;-51
2022/09/16 08:20:06;;;;;;;10.88;7.10;;;15.10;99.90;;;;;;5053942;28;20022;-53
2022/09/16 08:22:31;;;;;;;10.20;7.85;;;15.30;99.90;;;;;;5053871;28;20053;-52
2022/09/16 08:24:57;;;;;;;10.68;7.47;;;15.30;99.90;;;;;;5053714;28;20079;-53
2022/09/16 08:27:22;;;;;;;8.68;7.50;;;15.30;99.90;;;;;;5053951;28;20021;-52
2022/09/16 08:29:48;;;;;;;16.10;8.25;;;15.30;99.90;;;;;;5053693;28;20423;-52
2022/09/16 08:32:14;;;;;;;10.13;7.95;;;15.30;99.90;;;;;;5053554;28;20461;-52
2022/09/16 08:34:39;;;;;;;14.43;6.88;;;15.40;99.90;;;;;;5053703;28;20376;-59
2022/09/16 08:37:05;;;;;;;10.73;7.13;;;15.50;99.90;;;;;;5052188;28;20024;-52
2022/09/16 08:39:31;;;;;;;10.90;8.90;;;15.70;99.90;;;;;;5053375;28;20079;-52
2022/09/16 08:42:26;;;;;;;10.65;8.95;;;15.50;99.90;;;;;;5053538;28;20024;-54
2022/09/16 08:45:19;;;;;;;11.60;8.50;;;15.60;99.90;;;;;;5053486;28;20025;-52
2022/09/16 08:47:48;;;;;;;13.32;8.30;;;15.70;99.90;;;;;;5053318;28;20086;-52
2022/09/16 08:50:36;;;;;;;10.05;7.53;;;15.80;99.90;;;;;;5053536;28;20465;-54
2022/09/16 08:53:06;;;;;;;13.15;8.70;;;15.80;99.90;;;;;;5052180;28;20028;-50
2022/09/16 08:55:38;;;;;;;9.32;8.43;;;15.60;99.90;;;;;;5053241;28;20029;-52
2022/09/16 08:58:12;;;;;;;10.60;8.23;;;15.70;99.90;;;;;;5053197;28;20021;-51
2022/09/16 09:00:39;;;;;;;12.10;8.43;;;15.70;99.90;;;;;;5053099;28;20051;-52
2022/09/16 09:03:17;;;;;;;13.75;9.73;;;15.70;99.90;;;;;;5053209;28;20547;-52
2022/09/16 09:05:52;;;;;;;9.88;7.53;;;15.80;99.90;;;;;;5053062;28;20032;-51
2022/09/16 09:08:50;;;;;;;14.82;8.55;;;15.90;99.90;;;;;;5052826;28;20053;-52
2022/09/16 09:11:38;;;;;;;17.60;9.23;;;16.10;99.90;;;;;;5052618;28;20017;-51
2022/09/16 09:14:28;;;;;;;15.40;9.57;;;16.20;99.90;;;;;;5052880;28;20029;-52
2022/09/16 09:17:14;;;;;;;11.18;8.82;;;16.30;99.90;;;;;;5052919;28;20360;-51
2022/09/16 09:20:07;;;;;;;12.20;9.68;;;16.30;99.90;;;;;;5052935;28;20453;-52
2022/09/16 09:22:32;;;;;;;13.98;9.40;;;16.30;99.90;;;;;;5068205;28;20029;-52
2022/09/16 09:25:16;;;;;;;10.85;8.77;;;16.40;99.90;;;;;;5052848;28;20029;-53
2022/09/16 09:27:46;;;;;;;;;;;16.50;99.90;;;;;;5053259;28;20075;-52
2022/09/16 09:30:27;;;;;;;8.55;7.43;;;17.00;99.90;;;;;;5052808;28;20258;-54
2022/09/16 09:33:27;;;;;;;8.40;7.50;;;17.10;99.90;;;;;;5052575;28;20025;-51
2022/09/16 09:36:02;;;;;;;9.63;8.07;;;17.60;99.90;;;;;;5052326;28;20028;-55
2022/09/16 09:39:09;;;;;;;14.15;8.50;;;17.60;99.90;;;;;;5052118;28;20025;-53
2022/09/16 09:41:37;;;;;;;12.35;8.18;;;17.20;99.90;;;;;;5039856;28;20037;-52
2022/09/16 09:44:21;;;;;;;14.13;7.57;;;17.50;99.90;;;;;;5052370;28;20028;-52
2022/09/16 09:46:53;;;;;;;13.55;7.13;;;17.10;99.90;;;;;;5052272;28;20043;-52
2022/09/16 09:49:45;;;;;;;12.43;7.72;;;17.40;99.90;;;;;;5052436;28;20514;-52
2022/09/16 09:52:25;;;;;;;11.13;7.95;;;17.20;99.90;;;;;;5052165;28;20092;-53
2022/09/16 09:54:51;;;;;;;15.48;9.05;;;17.20;99.90;;;;;;5052134;28;20017;-51
2022/09/16 09:57:38;;;;;;;10.70;7.70;;;17.40;99.90;;;;;;5052029;28;20036;-54
2022/09/16 10:00:10;;;;;;;15.85;8.35;;;17.90;99.90;;;;;;5051701;28;20108;-50
2022/09/16 10:02:39;;;;;;;10.20;7.63;;;18.10;99.90;;;;;;5051953;28;20041;-51
2022/09/16 10:05:11;;;;;;;10.27;6.47;;;17.60;99.90;;;;;;5052149;28;20087;-51
2022/09/16 10:07:38;;;;;;;12.10;6.68;;;17.50;99.90;;;;;;5051851;28;20029;-53
2022/09/16 10:10:19;;;;;;;10.13;6.70;;;17.20;99.90;;;;;;5052078;28;20430;-51
2022/09/16 10:12:45;;;;;;;14.02;6.45;;;17.20;99.90;;;;;;5051748;28;20021;-51
2022/09/16 10:15:26;;;;;;;12.50;5.68;;;17.00;99.90;;;;;;5053440;28;20029;-52
2022/09/16 10:17:53;;;;;;;8.77;6.78;;;17.20;99.90;;;;;;5059066;28;20028;-50
2022/09/16 10:20:38;;;;;;;8.25;6.05;;;17.40;99.90;;;;;;5060553;28;20055;-54
2022/09/16 10:23:18;;;;;;;7.45;6.03;;;17.40;99.90;;;;;;5061107;28;20115;-52
2022/09/16 10:25:44;;;;;;;14.00;6.05;;;17.20;99.90;;;;;;5061068;28;20031;-53
2022/09/16 10:28:24;;;;;;;10.32;6.28;;;17.20;99.90;;;;;;5060497;28;20464;-50
2022/09/16 10:30:57;;;;;;;9.77;6.45;;;17.50;99.90;;;;;;5060200;28;20051;-54
2022/09/16 10:33:28;;;;;;;19.40;7.13;;;17.30;99.90;;;;;;5060675;28;20400;-53
2022/09/16 10:35:59;;;;;;;8.20;6.22;;;17.40;99.90;;;;;;5060349;28;20516;-52
2022/09/16 10:38:37;;;;;;;7.75;5.75;;;17.60;99.90;;;;;;5060057;28;20422;-51
2022/09/16 10:41:13;;;;;;;12.73;6.97;;;17.70;99.90;;;;;;5060073;28;21117;-55
2022/09/16 10:43:47;;;;;;;13.90;6.53;;;17.40;99.90;;;;;;5060957;28;20504;-51
2022/09/16 10:46:14;;;;;;;10.38;6.93;;;17.60;99.90;;;;;;5059461;28;20060;-51
2022/09/16 10:48:41;;;;;;;9.38;7.50;;;17.50;99.90;;;;;;5060499;28;20089;-54
2022/09/16 10:51:28;;;;;;;10.70;7.38;;;17.70;99.90;;;;;;5060437;28;20051;-50
2022/09/16 10:53:59;;;;;;;10.23;6.28;;;17.90;99.90;;;;;;5060571;28;20422;-49
2022/09/16 10:56:30;;;;;;;14.38;7.25;;;18.00;99.90;;;;;;5059933;28;20089;-56
2022/09/16 10:59:12;;;;;;;9.35;6.22;;;18.20;99.90;;;;;;5060823;28;20029;-51
2022/09/16 11:02:04;;;;;;;6.93;5.90;;;17.80;99.90;;;;;;5060786;28;20418;-51
2022/09/16 11:04:54;;;;;;;12.02;7.25;;;17.80;99.90;;;;;;5060357;28;20380;-52
2022/09/16 11:07:39;;;;;;;14.00;8.13;;;17.80;99.90;;;;;;5060404;28;20119;-52
2022/09/16 11:10:24;;;;;;;10.65;6.25;;;17.80;99.90;;;;;;5060400;28;20047;-52
2022/09/16 11:13:11;;;;;;;9.93;6.70;;;17.80;99.90;;;;;;5060490;28;20120;-53
2022/09/16 11:15:45;;;;;;;12.18;7.13;;;17.90;99.90;;;;;;5059579;28;20052;-51
2022/09/16 11:18:29;;;;;;;11.38;7.03;;;17.50;99.90;;;;;;5060515;28;20067;-51
2022/09/16 11:21:10;;;;;;;9.88;7.43;;;17.90;99.90;;;;;;5060358;28;22667;-55
2022/09/16 11:24:03;;;;;;;7.00;6.30;;;18.30;99.90;;;;;;5059310;28;20040;-52
2022/09/16 11:26:42;;;;;;;11.15;6.78;;;18.80;99.90;;;;;;5059731;28;20067;-52
2022/09/16 11:29:43;;;;;;;17.08;6.22;;;18.30;99.90;;;;;;5059868;28;20056;-52
2022/09/16 11:32:49;;;;;;;10.65;6.18;;;18.20;99.90;;;;;;4997748;28;20022;-55
2022/09/16 11:35:58;;;;;;;8.85;5.97;;;17.90;99.90;;;;;;5062290;28;20040;-52
2022/09/16 11:38:51;;;;;;;8.65;5.47;;;18.10;99.90;;;;;;5063839;28;20032;-54
2022/09/16 11:41:19;;;;;;;8.60;6.53;;;18.20;99.90;;;;;;5063550;28;20874;-53
2022/09/16 11:44:03;;;;;;;14.57;7.53;;;18.30;99.90;;;;;;5063486;28;20029;-51
2022/09/16 11:46:44;;;;;;;8.95;6.38;;;18.20;99.90;;;;;;5063742;28;20025;-51
2022/09/16 11:49:36;;;;;;;9.63;7.03;;;17.70;99.90;;;;;;5063487;28;20032;-52
2022/09/16 11:52:28;;;;;;;7.38;6.07;;;17.90;99.90;;;;;;5063764;28;20131;-51
2022/09/16 11:55:25;;;;;;;9.75;6.05;;;17.50;99.90;;;;;;5062858;28;20044;-51
2022/09/16 11:57:58;;;;;;;10.60;6.50;;;17.60;99.90;;;;;;5062461;28;20025;-54
2022/09/16 12:00:24;;;;;;;;;;;17.40;99.90;;;;;;5064459;28;20029;-52
2022/09/16 12:03:16;;;;;;;8.88;6.85;;;17.40;99.90;;;;;;5062922;28;19915;-52
2022/09/16 12:05:52;;;;;;;12.68;6.47;;;17.40;99.90;;;;;;5069342;28;20032;-51
2022/09/16 12:08:43;;;;;;;10.38;6.75;;;17.60;99.90;;;;;;5074155;28;20070;-50
2022/09/16 12:11:20;;;;;;;12.02;5.80;;;17.60;99.90;;;;;;5074203;28;20365;-52
2022/09/16 12:14:10;;;;;;;7.72;5.68;;;17.50;99.90;;;;;;5073208;28;20025;-50
2022/09/16 12:16:56;;;;;;;11.95;6.13;;;17.50;99.90;;;;;;5073780;28;20017;-53
2022/09/16 12:19:47;;;;;;;11.43;7.22;;;17.40;99.90;;;;;;5073921;28;20028;-51
2022/09/16 12:22:25;;;;;;;15.68;6.45;;;17.10;99.90;;;;;;5072689;28;20016;-51
2022/09/16 12:25:11;;;;;;;12.48;6.72;;;17.00;99.90;;;;;;5072749;28;20375;-51
2022/09/16 12:27:51;;;;;;;11.07;7.13;;;16.90;99.90;;;;;;5072487;28;20036;-55
2022/09/16 12:30:25;;;;;;;9.93;6.63;;;17.00;99.90;;;;;;5072580;28;20028;-54
2022/09/16 12:32:53;;;;;;;8.20;7.03;;;16.90;99.90;;;;;;5072589;28;20426;-54
2022/09/16 12:35:29;;;;;;;9.85;7.40;;;16.80;99.90;;;;;;5072786;28;20094;-54
2022/09/16 12:37:56;;;;;;;9.43;6.82;;;16.80;99.90;;;;;;5073037;28;20016;-54
2022/09/16 12:40:46;;;;;;;9.60;7.28;;;16.60;99.90;;;;;;5073042;28;20020;-54
2022/09/16 12:43:24;;;;;;;11.10;8.40;;;16.60;99.90;;;;;;5061864;28;20048;-54
2022/09/16 12:46:20;;;;;;;10.23;7.03;;;16.70;99.90;;;;;;5072269;28;20032;-52
2022/09/16 12:49:24;;;;;;;8.02;6.05;;;16.90;99.90;;;;;;5072321;28;20028;-55
2022/09/16 12:52:17;;;;;;;9.30;7.25;;;17.10;99.90;;;;;;5072329;28;20028;-54
2022/09/16 12:54:49;;;;;;;9.15;7.18;;;17.00;99.90;;;;;;5072172;28;20543;-52
2022/09/16 12:57:33;;;;;;;9.60;6.05;;;17.30;99.90;;;;;;5072251;28;20138;-52
2022/09/16 13:00:08;;;;;;;8.50;6.82;;;17.70;99.90;;;;;;5072097;28;20035;-52
2022/09/16 13:02:44;;;;;;;6.53;5.18;;;19.10;99.90;;;;;;5072133;28;20380;-51
2022/09/16 13:05:35;;;;;;;9.55;5.72;;;20.60;98.50;;;;;;5072011;28;20051;-51
2022/09/16 13:08:25;;;;;;;9.27;6.43;;;20.60;98.40;;;;;;5071662;28;20052;-52
2022/09/16 13:11:02;;;;;;;7.68;6.88;;;21.30;98.60;;;;;;5071779;28;20041;-52
2022/09/16 13:13:36;;;;;;;11.57;7.05;;;21.50;97.00;;;;;;5072589;28;20036;-53